sensor_id;sensor_type;location;lat;lon;timestamp;pressure;altitude;pressure_sealevel;temperature;humidity
20145;BME280;10233;50.814;6.590;2023-02-16T00:00:21;101147.91;;;3.63;100.00
20145;BME280;10233;50.814;6.590;2023-02-16T00:01:29;101135.31;;;3.57;100.00
20145;BME280;10233;50.814;6.590;2023-02-16T00:02:30;101140.19;;;3.61;100.00
20145;BME280;10233;50.814;6.590;2023-02-16T00:03:32;101139.47;;;3.59;100.00
20145;BME280;10233;50.814;6.590;2023-02-16T00:04:32;101141.66;;;3.54;100.00
20145;BME280;10233;50.814;6.590;2023-02-16T00:05:33;101142.38;;;3.56;100.00
20145;BME280;10233;50.814;6.590;2023-02-16T00:06:34;101144.28;;;3.54;100.00
20145;BME280;10233;50.814;6.590;2023-02-16T00:07:35;101145.50;;;3.50;100.00
20145;BME280;10233;50.814;6.590;2023-02-16T00:08:35;101139.84;;;3.45;100.00
20145;BME280;10233;50.814;6.590;2023-02-16T00:09:38;101137.50;;;3.52;100.00
20145;BME280;10233;50.814;6.590;2023-02-16T00:10:39;101132.50;;;3.49;100.00
20145;BME280;10233;50.814;6.590;2023-02-16T00:11:40;101138.72;;;3.48;100.00
20145;BME280;10233;50.814;6.590;2023-02-16T00:13:00;101131.94;;;3.45;100.00
20145;BME280;10233;50.814;6.590;2023-02-16T00:14:20;101136.81;;;3.50;100.00
20145;BME280;10233;50.814;6.590;2023-02-16T00:15:22;101136.53;;;3.43;100.00
20145;BME280;10233;50.814;6.590;2023-02-16T00:16:23;101138.84;;;3.46;100.00
20145;BME280;10233;50.814;6.590;2023-02-16T00:17:24;101140.81;;;3.44;100.00
20145;BME280;10233;50.814;6.590;2023-02-16T00:18:24;101144.72;;;3.50;100.00
20145;BME280;10233;50.814;6.590;2023-02-16T00:19:28;101148.16;;;3.50;100.00
20145;BME280;10233;50.814;6.590;2023-02-16T00:20:29;101143.63;;;3.62;100.00
20145;BME280;10233;50.814;6.590;2023-02-16T00:21:30;101148.19;;;3.69;100.00
20145;BME280;10233;50.814;6.590;2023-02-16T00:22:31;101137.00;;;3.77;100.00
20145;BME280;10233;50.814;6.590;2023-02-16T00:23:31;101143.09;;;3.77;100.00
20145;BME280;10233;50.814;6.590;2023-02-16T00:24:32;101142.25;;;3.77;100.00
20145;BME280;10233;50.814;6.590;2023-02-16T00:25:33;101141.56;;;3.84;100.00
20145;BME280;10233;50.814;6.590;2023-02-16T00:26:34;101133.59;;;3.95;100.00
20145;BME280;10233;50.814;6.590;2023-02-16T00:27:34;101139.69;;;4.05;100.00
20145;BME280;10233;50.814;6.590;2023-02-16T00:28:35;101140.91;;;4.01;100.00
20145;BME280;10233;50.814;6.590;2023-02-16T00:29:36;101142.44;;;4.13;100.00
20145;BME280;10233;50.814;6.590;2023-02-16T00:30:37;101137.03;;;4.05;100.00
20145;BME280;10233;50.814;6.590;2023-02-16T00:31:38;101134.25;;;4.07;100.00
20145;BME280;10233;50.814;6.590;2023-02-16T00:32:39;101130.25;;;4.03;100.00
20145;BME280;10233;50.814;6.590;2023-02-16T00:33:39;101133.84;;;4.02;100.00
20145;BME280;10233;50.814;6.590;2023-02-16T00:34:40;101135.25;;;3.96;100.00
20145;BME280;10233;50.814;6.590;2023-02-16T00:35:41;101132.03;;;3.93;100.00
20145;BME280;10233;50.814;6.590;2023-02-16T00:36:42;101131.91;;;3.94;100.00
20145;BME280;10233;50.814;6.590;2023-02-16T00:37:44;101134.25;;;3.97;100.00
20145;BME280;10233;50.814;6.590;2023-02-16T00:38:45;101132.03;;;3.83;100.00
20145;BME280;10233;50.814;6.590;2023-02-16T00:39:45;101132.03;;;3.83;100.00
20145;BME280;10233;50.814;6.590;2023-02-16T00:40:46;101137.84;;;3.77;100.00
20145;BME280;10233;50.814;6.590;2023-02-16T00:41:47;101131.75;;;3.77;100.00
20145;BME280;10233;50.814;6.590;2023-02-16T00:42:50;101132.88;;;3.93;100.00
20145;BME280;10233;50.814;6.590;2023-02-16T00:43:51;101134.25;;;3.78;100.00
20145;BME280;10233;50.814;6.590;2023-02-16T00:44:55;101131.19;;;3.73;100.00
20145;BME280;10233;50.814;6.590;2023-02-16T00:45:56;101126.19;;;3.70;100.00
20145;BME280;10233;50.814;6.590;2023-02-16T00:47:02;101123.56;;;3.70;100.00
20145;BME280;10233;50.814;6.590;2023-02-16T00:48:04;101130.22;;;3.65;100.00
20145;BME280;10233;50.814;6.590;2023-02-16T00:49:11;101126.91;;;3.72;100.00
20145;BME280;10233;50.814;6.590;2023-02-16T00:51:19;101121.78;;;3.71;100.00
20145;BME280;10233;50.814;6.590;2023-02-16T00:52:37;101128.97;;;3.69;100.00
20145;BME280;10233;50.814;6.590;2023-02-16T00:53:39;101130.22;;;3.65;100.00
20145;BME280;10233;50.814;6.590;2023-02-16T00:54:39;101132.00;;;3.64;100.00
20145;BME280;10233;50.814;6.590;2023-02-16T00:55:40;101127.84;;;3.62;100.00
20145;BME280;10233;50.814;6.590;2023-02-16T00:56:41;101122.47;;;3.73;100.00
20145;BME280;10233;50.814;6.590;2023-02-16T00:59:21;101119.56;;;3.85;100.00
20145;BME280;10233;50.814;6.590;2023-02-16T01:00:26;101126.34;;;3.69;100.00
20145;BME280;10233;50.814;6.590;2023-02-16T01:01:32;101119.03;;;3.72;100.00
20145;BME280;10233;50.814;6.590;2023-02-16T01:02:33;101120.38;;;3.67;100.00
20145;BME280;10233;50.814;6.590;2023-02-16T01:03:34;101123.31;;;3.64;100.00
20145;BME280;10233;50.814;6.590;2023-02-16T01:04:38;101111.53;;;3.58;100.00
20145;BME280;10233;50.814;6.590;2023-02-16T01:05:38;101116.66;;;3.60;100.00
20145;BME280;10233;50.814;6.590;2023-02-16T01:06:39;101110.03;;;3.75;100.00
20145;BME280;10233;50.814;6.590;2023-02-16T01:07:58;101118.31;;;3.70;100.00
20145;BME280;10233;50.814;6.590;2023-02-16T01:09:19;101108.75;;;3.60;100.00
20145;BME280;10233;50.814;6.590;2023-02-16T01:10:39;101116.09;;;3.56;100.00
20145;BME280;10233;50.814;6.590;2023-02-16T01:11:58;101110.41;;;3.61;100.00
20145;BME280;10233;50.814;6.590;2023-02-16T01:13:00;101111.53;;;3.58;100.00
20145;BME280;10233;50.814;6.590;2023-02-16T01:14:00;101114.69;;;3.52;100.00
20145;BME280;10233;50.814;6.590;2023-02-16T01:15:01;101110.66;;;3.48;100.00
20145;BME280;10233;50.814;6.590;2023-02-16T01:16:03;101109.97;;;3.46;100.00
20145;BME280;10233;50.814;6.590;2023-02-16T01:17:04;101113.41;;;3.37;100.00
20145;BME280;10233;50.814;6.590;2023-02-16T01:18:05;101101.81;;;3.49;100.00
20145;BME280;10233;50.814;6.590;2023-02-16T01:19:06;101105.81;;;3.44;100.00
20145;BME280;10233;50.814;6.590;2023-02-16T01:20:15;101110.13;;;3.45;100.00
20145;BME280;10233;50.814;6.590;2023-02-16T01:21:16;101098.53;;;3.66;100.00
20145;BME280;10233;50.814;6.590;2023-02-16T01:22:16;101108.78;;;3.79;100.00
20145;BME280;10233;50.814;6.590;2023-02-16T01:23:17;101102.97;;;3.66;100.00
20145;BME280;10233;50.814;6.590;2023-02-16T01:24:18;101107.09;;;3.59;100.00
20145;BME280;10233;50.814;6.590;2023-02-16T01:25:21;101102.53;;;3.61;100.00
20145;BME280;10233;50.814;6.590;2023-02-16T01:26:22;101112.38;;;3.68;100.00
20145;BME280;10233;50.814;6.590;2023-02-16T01:27:23;101107.66;;;3.72;100.00
20145;BME280;10233;50.814;6.590;2023-02-16T01:28:25;101113.03;;;3.61;100.00
20145;BME280;10233;50.814;6.590;2023-02-16T01:29:25;101107.09;;;3.59;100.00
20145;BME280;10233;50.814;6.590;2023-02-16T01:30:26;101109.56;;;3.60;100.00
20145;BME280;10233;50.814;6.590;2023-02-16T01:31:27;101099.06;;;3.60;100.00
20145;BME280;10233;50.814;6.590;2023-02-16T01:32:27;101103.63;;;3.58;100.00
20145;BME280;10233;50.814;6.590;2023-02-16T01:33:28;101113.19;;;3.59;100.00
20145;BME280;10233;50.814;6.590;2023-02-16T01:34:28;101102.25;;;3.54;100.00
20145;BME280;10233;50.814;6.590;2023-02-16T01:35:33;101097.00;;;3.54;100.00
20145;BME280;10233;50.814;6.590;2023-02-16T01:36:36;101082.75;;;3.57;100.00
20145;BME280;10233;50.814;6.590;2023-02-16T01:37:40;101086.59;;;3.43;100.00
20145;BME280;10233;50.814;6.590;2023-02-16T01:38:40;101094.63;;;3.42;100.00
20145;BME280;10233;50.814;6.590;2023-02-16T01:39:40;101092.16;;;3.50;100.00
20145;BME280;10233;50.814;6.590;2023-02-16T01:40:44;101092.28;;;3.58;100.00
20145;BME280;10233;50.814;6.590;2023-02-16T01:43:13;101097.25;;;3.51;100.00
20145;BME280;10233;50.814;6.590;2023-02-16T01:44:26;101099.06;;;3.51;100.00
20145;BME280;10233;50.814;6.590;2023-02-16T01:45:37;101099.88;;;3.42;100.00
20145;BME280;10233;50.814;6.590;2023-02-16T01:47:53;101097.91;;;3.34;100.00
20145;BME280;10233;50.814;6.590;2023-02-16T01:48:55;101100.97;;;3.39;100.00
20145;BME280;10233;50.814;6.590;2023-02-16T01:49:55;101105.13;;;3.32;100.00
20145;BME280;10233;50.814;6.590;2023-02-16T01:51:27;101099.88;;;3.42;100.00
20145;BME280;10233;50.814;6.590;2023-02-16T01:52:41;101094.31;;;3.26;100.00
20145;BME280;10233;50.814;6.590;2023-02-16T01:53:46;101090.59;;;3.28;100.00
20145;BME280;10233;50.814;6.590;2023-02-16T01:55:04;101092.91;;;3.31;100.00
20145;BME280;10233;50.814;6.590;2023-02-16T01:56:18;101094.56;;;3.23;100.00
20145;BME280;10233;50.814;6.590;2023-02-16T01:57:43;101092.66;;;3.34;100.00
20145;BME280;10233;50.814;6.590;2023-02-16T01:58:48;101084.66;;;3.36;100.00
20145;BME280;10233;50.814;6.590;2023-02-16T02:01:59;101082.72;;;3.38;100.00
20145;BME280;10233;50.814;6.590;2023-02-16T02:03:02;101085.44;;;3.27;100.00
20145;BME280;10233;50.814;6.590;2023-02-16T02:04:26;101084.34;;;3.39;100.00
20145;BME280;10233;50.814;6.590;2023-02-16T02:05:48;101084.59;;;3.26;100.00
20145;BME280;10233;50.814;6.590;2023-02-16T02:06:50;101091.13;;;3.22;100.00
20145;BME280;10233;50.814;6.590;2023-02-16T02:09:02;101086.13;;;3.29;100.00
20145;BME280;10233;50.814;6.590;2023-02-16T02:10:16;101081.31;;;3.34;100.00
20145;BME280;10233;50.814;6.590;2023-02-16T02:11:26;101083.25;;;3.22;100.00
20145;BME280;10233;50.814;6.590;2023-02-16T02:12:51;101079.28;;;3.07;100.00
20145;BME280;10233;50.814;6.590;2023-02-16T02:13:57;101076.81;;;3.06;100.00
20145;BME280;10233;50.814;6.590;2023-02-16T02:15:01;101075.72;;;3.08;100.00
20145;BME280;10233;50.814;6.590;2023-02-16T02:16:03;101075.56;;;3.00;100.00
20145;BME280;10233;50.814;6.590;2023-02-16T02:17:10;101076.78;;;2.96;100.00
20145;BME280;10233;50.814;6.590;2023-02-16T02:18:11;101078.16;;;2.91;100.00
20145;BME280;10233;50.814;6.590;2023-02-16T02:19:12;101071.81;;;2.93;100.00
20145;BME280;10233;50.814;6.590;2023-02-16T02:28:25;101067.06;;;3.27;100.00
20145;BME280;10233;50.814;6.590;2023-02-16T02:29:40;101066.53;;;3.33;100.00
20145;BME280;10233;50.814;6.590;2023-02-16T02:33:27;101063.28;;;3.69;100.00
20145;BME280;10233;50.814;6.590;2023-02-16T02:36:16;101063.94;;;3.80;100.00
20145;BME280;10233;50.814;6.590;2023-02-16T02:37:53;101056.63;;;3.84;100.00
20145;BME280;10233;50.814;6.590;2023-02-16T02:41:24;101060.09;;;3.94;100.00
20145;BME280;10233;50.814;6.590;2023-02-16T02:44:23;101056.06;;;3.90;100.00
20145;BME280;10233;50.814;6.590;2023-02-16T02:45:31;101057.44;;;3.84;100.00
20145;BME280;10233;50.814;6.590;2023-02-16T02:46:34;101057.56;;;3.83;100.00
20145;BME280;10233;50.814;6.590;2023-02-16T02:47:43;101051.50;;;3.82;100.00
20145;BME280;10233;50.814;6.590;2023-02-16T02:48:43;101059.38;;;3.82;100.00
20145;BME280;10233;50.814;6.590;2023-02-16T02:49:49;101055.53;;;3.86;100.00
20145;BME280;10233;50.814;6.590;2023-02-16T02:50:52;101054.13;;;3.82;100.00
20145;BME280;10233;50.814;6.590;2023-02-16T02:52:14;101050.41;;;3.85;100.00
20145;BME280;10233;50.814;6.590;2023-02-16T02:53:15;101054.53;;;3.87;100.00
20145;BME280;10233;50.814;6.590;2023-02-16T02:54:37;101049.56;;;3.94;100.00
20145;BME280;10233;50.814;6.590;2023-02-16T02:56:00;101051.19;;;4.04;100.00
20145;BME280;10233;50.814;6.590;2023-02-16T02:57:45;101046.84;;;4.32;100.00
20145;BME280;10233;50.814;6.590;2023-02-16T02:59:08;101044.81;;;4.26;100.00
20145;BME280;10233;50.814;6.590;2023-02-16T03:00:40;101041.34;;;4.25;100.00
20145;BME280;10233;50.814;6.590;2023-02-16T03:01:49;101045.63;;;4.26;100.00
20145;BME280;10233;50.814;6.590;2023-02-16T03:02:57;101042.72;;;4.29;100.00
20145;BME280;10233;50.814;6.590;2023-02-16T03:04:00;101045.34;;;4.29;100.00
20145;BME280;10233;50.814;6.590;2023-02-16T03:05:02;101037.75;;;4.26;100.00
20145;BME280;10233;50.814;6.590;2023-02-16T03:06:06;101035.25;;;4.34;100.00
20145;BME280;10233;50.814;6.590;2023-02-16T03:07:09;101036.19;;;4.43;100.00
20145;BME280;10233;50.814;6.590;2023-02-16T03:08:13;101036.06;;;4.44;100.00
20145;BME280;10233;50.814;6.590;2023-02-16T03:09:15;101047.03;;;4.21;100.00
20145;BME280;10233;50.814;6.590;2023-02-16T03:10:19;101038.75;;;4.06;100.00
20145;BME280;10233;50.814;6.590;2023-02-16T03:11:39;101041.25;;;3.98;100.00
20145;BME280;10233;50.814;6.590;2023-02-16T03:13:00;101049.69;;;3.92;100.00
20145;BME280;10233;50.814;6.590;2023-02-16T03:14:16;101042.34;;;3.96;100.00
20145;BME280;10233;50.814;6.590;2023-02-16T03:15:17;101048.31;;;3.98;100.00
20145;BME280;10233;50.814;6.590;2023-02-16T03:16:24;101053.31;;;3.91;100.00
20145;BME280;10233;50.814;6.590;2023-02-16T03:17:31;101046.50;;;3.98;100.00
20145;BME280;10233;50.814;6.590;2023-02-16T03:18:52;101037.09;;;4.05;100.00
20145;BME280;10233;50.814;6.590;2023-02-16T03:20:13;101040.94;;;4.11;100.00
20145;BME280;10233;50.814;6.590;2023-02-16T03:21:33;101034.88;;;4.10;100.00
20145;BME280;10233;50.814;6.590;2023-02-16T03:22:53;101033.38;;;4.08;100.00
20145;BME280;10233;50.814;6.590;2023-02-16T03:24:20;101036.00;;;4.08;100.00
20145;BME280;10233;50.814;6.590;2023-02-16T03:25:41;101032.53;;;4.07;100.00
20145;BME280;10233;50.814;6.590;2023-02-16T03:27:01;101030.72;;;4.08;100.00
20145;BME280;10233;50.814;6.590;2023-02-16T03:28:25;101027.13;;;3.99;100.00
20145;BME280;10233;50.814;6.590;2023-02-16T03:29:47;101028.09;;;3.98;100.00
20145;BME280;10233;50.814;6.590;2023-02-16T03:30:50;101024.66;;;3.98;100.00
20145;BME280;10233;50.814;6.590;2023-02-16T03:31:53;101024.22;;;4.02;100.00
20145;BME280;10233;50.814;6.590;2023-02-16T03:32:54;101023.69;;;3.99;100.00
20145;BME280;10233;50.814;6.590;2023-02-16T03:33:55;101023.53;;;4.00;100.00
20145;BME280;10233;50.814;6.590;2023-02-16T03:34:56;101027.41;;;3.96;100.00
20145;BME280;10233;50.814;6.590;2023-02-16T03:35:57;101026.44;;;3.97;100.00
20145;BME280;10233;50.814;6.590;2023-02-16T03:36:58;101014.13;;;3.98;100.00
20145;BME280;10233;50.814;6.590;2023-02-16T03:38:00;101020.75;;;4.02;100.00
20145;BME280;10233;50.814;6.590;2023-02-16T03:39:01;101030.03;;;3.87;100.00
20145;BME280;10233;50.814;6.590;2023-02-16T03:40:05;101026.03;;;3.92;100.00
20145;BME280;10233;50.814;6.590;2023-02-16T03:41:25;101028.13;;;3.89;100.00
20145;BME280;10233;50.814;6.590;2023-02-16T03:42:30;101015.38;;;3.84;100.00
20145;BME280;10233;50.814;6.590;2023-02-16T03:43:31;101022.16;;;3.68;100.00
20145;BME280;10233;50.814;6.590;2023-02-16T03:44:31;101014.84;;;3.71;100.00
20145;BME280;10233;50.814;6.590;2023-02-16T03:45:33;101021.06;;;3.61;100.00
20145;BME280;10233;50.814;6.590;2023-02-16T03:46:34;101015.94;;;3.59;100.00
20145;BME280;10233;50.814;6.590;2023-02-16T03:47:35;101024.53;;;3.61;100.00
20145;BME280;10233;50.814;6.590;2023-02-16T03:48:35;101020.09;;;3.52;100.00
20145;BME280;10233;50.814;6.590;2023-02-16T03:49:35;101023.97;;;3.48;100.00
20145;BME280;10233;50.814;6.590;2023-02-16T03:50:36;101024.91;;;3.38;100.00
20145;BME280;10233;50.814;6.590;2023-02-16T03:51:37;101025.75;;;3.38;100.00
20145;BME280;10233;50.814;6.590;2023-02-16T03:52:37;101012.19;;;3.33;100.00
20145;BME280;10233;50.814;6.590;2023-02-16T03:53:38;101032.50;;;3.31;100.00
20145;BME280;10233;50.814;6.590;2023-02-16T03:54:38;101016.47;;;3.25;100.00
20145;BME280;10233;50.814;6.590;2023-02-16T03:55:44;101023.25;;;3.27;100.00
20145;BME280;10233;50.814;6.590;2023-02-16T03:56:45;101023.50;;;3.24;100.00
20145;BME280;10233;50.814;6.590;2023-02-16T03:57:45;101016.06;;;3.29;100.00
20145;BME280;10233;50.814;6.590;2023-02-16T03:58:46;101021.31;;;3.39;100.00
20145;BME280;10233;50.814;6.590;2023-02-16T03:59:46;101018.56;;;3.40;100.00
20145;BME280;10233;50.814;6.590;2023-02-16T04:00:47;101015.25;;;3.38;100.00
20145;BME280;10233;50.814;6.590;2023-02-16T04:01:48;101013.84;;;3.44;100.00
20145;BME280;10233;50.814;6.590;2023-02-16T04:02:49;101013.72;;;3.36;100.00
20145;BME280;10233;50.814;6.590;2023-02-16T04:03:49;101018.56;;;3.31;100.00
20145;BME280;10233;50.814;6.590;2023-02-16T04:04:50;101019.09;;;3.34;100.00
20145;BME280;10233;50.814;6.590;2023-02-16T04:05:50;101025.03;;;3.27;100.00
20145;BME280;10233;50.814;6.590;2023-02-16T04:06:51;101020.63;;;3.27;100.00
20145;BME280;10233;50.814;6.590;2023-02-16T04:07:51;101014.66;;;3.25;100.00
20145;BME280;10233;50.814;6.590;2023-02-16T04:08:52;101016.88;;;3.20;100.00
20145;BME280;10233;50.814;6.590;2023-02-16T04:09:54;101014.25;;;3.20;100.00
20145;BME280;10233;50.814;6.590;2023-02-16T04:10:54;101022.13;;;3.20;100.00
20145;BME280;10233;50.814;6.590;2023-02-16T04:11:56;101020.22;;;3.32;100.00
20145;BME280;10233;50.814;6.590;2023-02-16T04:13:15;101020.22;;;3.22;100.00
20145;BME280;10233;50.814;6.590;2023-02-16T04:14:16;101019.50;;;3.20;100.00
20145;BME280;10233;50.814;6.590;2023-02-16T04:15:22;101017.16;;;3.17;100.00
20145;BME280;10233;50.814;6.590;2023-02-16T04:16:22;101024.06;;;3.18;100.00
20145;BME280;10233;50.814;6.590;2023-02-16T04:17:23;101022.00;;;3.22;100.00
20145;BME280;10233;50.814;6.590;2023-02-16T04:18:24;101024.88;;;3.19;100.00
20145;BME280;10233;50.814;6.590;2023-02-16T04:19:24;101022.41;;;3.27;100.00
20145;BME280;10233;50.814;6.590;2023-02-16T04:20:28;101020.47;;;3.29;100.00
20145;BME280;10233;50.814;6.590;2023-02-16T04:21:28;101027.38;;;3.20;100.00
20145;BME280;10233;50.814;6.590;2023-02-16T04:22:28;101025.16;;;3.16;100.00
20145;BME280;10233;50.814;6.590;2023-02-16T04:23:29;101036.47;;;3.16;100.00
20145;BME280;10233;50.814;6.590;2023-02-16T04:24:29;101026.25;;;3.13;100.00
20145;BME280;10233;50.814;6.590;2023-02-16T04:25:30;101029.69;;;3.04;100.00
20145;BME280;10233;50.814;6.590;2023-02-16T04:26:31;101032.19;;;3.06;100.00
20145;BME280;10233;50.814;6.590;2023-02-16T04:27:32;101030.25;;;2.98;100.00
20145;BME280;10233;50.814;6.590;2023-02-16T04:28:32;101034.47;;;2.90;100.00
20145;BME280;10233;50.814;6.590;2023-02-16T04:29:33;101033.22;;;2.84;100.00
20145;BME280;10233;50.814;6.590;2023-02-16T04:30:33;101030.59;;;2.84;100.00
20145;BME280;10233;50.814;6.590;2023-02-16T04:31:34;101031.41;;;2.75;100.00
20145;BME280;10233;50.814;6.590;2023-02-16T04:32:34;101022.97;;;2.81;100.00
20145;BME280;10233;50.814;6.590;2023-02-16T04:33:35;101030.03;;;2.81;100.00
20145;BME280;10233;50.814;6.590;2023-02-16T04:34:35;101024.94;;;2.79;100.00
20145;BME280;10233;50.814;6.590;2023-02-16T04:35:36;101027.13;;;2.74;100.00
20145;BME280;10233;50.814;6.590;2023-02-16T04:36:36;101029.88;;;2.73;100.00
20145;BME280;10233;50.814;6.590;2023-02-16T04:37:37;101029.16;;;2.71;100.00
20145;BME280;10233;50.814;6.590;2023-02-16T04:38:37;101025.84;;;2.69;100.00
20145;BME280;10233;50.814;6.590;2023-02-16T04:39:38;101025.28;;;2.65;100.00
20145;BME280;10233;50.814;6.590;2023-02-16T04:40:38;101029.00;;;2.63;100.00
20145;BME280;10233;50.814;6.590;2023-02-16T04:41:39;101030.22;;;2.59;100.00
20145;BME280;10233;50.814;6.590;2023-02-16T04:42:40;101028.91;;;2.74;100.00
20145;BME280;10233;50.814;6.590;2023-02-16T04:43:41;101026.28;;;2.74;100.00
20145;BME280;10233;50.814;6.590;2023-02-16T04:44:41;101026.69;;;2.69;100.00
20145;BME280;10233;50.814;6.590;2023-02-16T04:45:41;101013.38;;;2.61;100.00
20145;BME280;10233;50.814;6.590;2023-02-16T04:46:42;101026.94;;;2.66;100.00
20145;BME280;10233;50.814;6.590;2023-02-16T04:47:42;101026.91;;;2.57;100.00
20145;BME280;10233;50.814;6.590;2023-02-16T04:48:43;101027.47;;;2.60;100.00
20145;BME280;10233;50.814;6.590;2023-02-16T04:49:44;101024.97;;;2.59;100.00
20145;BME280;10233;50.814;6.590;2023-02-16T04:50:44;101025.00;;;2.68;100.00
20145;BME280;10233;50.814;6.590;2023-02-16T04:51:44;101028.44;;;2.59;100.00
20145;BME280;10233;50.814;6.590;2023-02-16T04:52:45;101028.25;;;2.51;100.00
20145;BME280;10233;50.814;6.590;2023-02-16T04:53:45;101021.66;;;2.57;100.00
20145;BME280;10233;50.814;6.590;2023-02-16T04:54:46;101026.97;;;2.46;100.00
20145;BME280;10233;50.814;6.590;2023-02-16T04:55:49;101032.09;;;2.47;100.00
20145;BME280;10233;50.814;6.590;2023-02-16T04:56:50;101026.53;;;2.41;100.00
20145;BME280;10233;50.814;6.590;2023-02-16T04:57:50;101029.31;;;2.39;100.00
20145;BME280;10233;50.814;6.590;2023-02-16T04:58:51;101022.97;;;2.42;100.00
20145;BME280;10233;50.814;6.590;2023-02-16T04:59:51;101024.22;;;2.47;100.00
20145;BME280;10233;50.814;6.590;2023-02-16T05:00:51;101032.09;;;2.47;100.00
20145;BME280;10233;50.814;6.590;2023-02-16T05:01:52;101023.69;;;2.53;100.00
20145;BME280;10233;50.814;6.590;2023-02-16T05:02:52;101029.91;;;2.52;100.00
20145;BME280;10233;50.814;6.590;2023-02-16T05:03:53;101027.16;;;2.54;100.00
20145;BME280;10233;50.814;6.590;2023-02-16T05:04:54;101023.44;;;2.56;100.00
20145;BME280;10233;50.814;6.590;2023-02-16T05:05:54;101024.44;;;2.65;100.00
20145;BME280;10233;50.814;6.590;2023-02-16T05:06:55;101030.66;;;2.64;100.00
20145;BME280;10233;50.814;6.590;2023-02-16T05:07:55;101029.81;;;2.63;100.00
20145;BME280;10233;50.814;6.590;2023-02-16T05:08:56;101021.81;;;2.65;100.00
20145;BME280;10233;50.814;6.590;2023-02-16T05:09:56;101022.53;;;2.67;100.00
20145;BME280;10233;50.814;6.590;2023-02-16T05:10:57;101022.81;;;2.73;100.00
20145;BME280;10233;50.814;6.590;2023-02-16T05:12:16;101021.19;;;2.82;100.00
20145;BME280;10233;50.814;6.590;2023-02-16T05:13:35;101023.41;;;2.86;100.00
20145;BME280;10233;50.814;6.590;2023-02-16T05:14:54;101022.34;;;2.98;100.00
20145;BME280;10233;50.814;6.590;2023-02-16T05:15:55;101021.22;;;2.91;100.00
20145;BME280;10233;50.814;6.590;2023-02-16T05:16:56;101024.56;;;2.93;100.00
20145;BME280;10233;50.814;6.590;2023-02-16T05:17:56;101024.56;;;2.93;100.00
20145;BME280;10233;50.814;6.590;2023-02-16T05:19:00;101023.97;;;2.90;100.00
20145;BME280;10233;50.814;6.590;2023-02-16T05:20:00;101022.06;;;2.92;100.00
20145;BME280;10233;50.814;6.590;2023-02-16T05:21:01;101025.25;;;2.95;100.00
20145;BME280;10233;50.814;6.590;2023-02-16T05:22:22;101029.81;;;2.93;100.00
20145;BME280;10233;50.814;6.590;2023-02-16T05:23:22;101030.06;;;3.00;100.00
20145;BME280;10233;50.814;6.590;2023-02-16T05:24:23;101017.63;;;2.92;100.00
20145;BME280;10233;50.814;6.590;2023-02-16T05:25:23;101025.25;;;2.95;100.00
20145;BME280;10233;50.814;6.590;2023-02-16T05:26:24;101026.22;;;2.94;100.00
20145;BME280;10233;50.814;6.590;2023-02-16T05:27:26;101027.75;;;2.97;100.00
20145;BME280;10233;50.814;6.590;2023-02-16T05:28:27;101018.06;;;2.97;100.00
20145;BME280;10233;50.814;6.590;2023-02-16T05:29:27;101022.34;;;2.98;100.00
20145;BME280;10233;50.814;6.590;2023-02-16T05:30:28;101023.03;;;3.00;100.00
20145;BME280;10233;50.814;6.590;2023-02-16T05:31:29;101020.97;;;2.94;100.00
20145;BME280;10233;50.814;6.590;2023-02-16T05:32:29;101018.75;;;2.99;100.00
20145;BME280;10233;50.814;6.590;2023-02-16T05:33:30;101015.03;;;3.02;100.00
20145;BME280;10233;50.814;6.590;2023-02-16T05:34:30;101020.41;;;3.00;100.00
20145;BME280;10233;50.814;6.590;2023-02-16T05:35:32;101017.66;;;3.02;100.00
20145;BME280;10233;50.814;6.590;2023-02-16T05:36:32;101023.03;;;3.00;100.00
20145;BME280;10233;50.814;6.590;2023-02-16T05:37:33;101021.81;;;3.04;100.00
20145;BME280;10233;50.814;6.590;2023-02-16T05:38:33;101022.78;;;3.03;100.00
20145;BME280;10233;50.814;6.590;2023-02-16T05:39:34;101019.31;;;3.03;100.00
20145;BME280;10233;50.814;6.590;2023-02-16T05:40:35;101023.06;;;3.10;100.00
20145;BME280;10233;50.814;6.590;2023-02-16T05:41:35;101022.38;;;3.08;100.00
20145;BME280;10233;50.814;6.590;2023-02-16T05:42:35;101023.63;;;3.13;100.00
20145;BME280;10233;50.814;6.590;2023-02-16T05:43:36;101025.56;;;3.11;100.00
20145;BME280;10233;50.814;6.590;2023-02-16T05:44:36;101026.09;;;3.15;100.00
20145;BME280;10233;50.814;6.590;2023-02-16T05:45:37;101022.13;;;3.20;100.00
20145;BME280;10233;50.814;6.590;2023-02-16T05:46:38;101026.56;;;3.20;100.00
20145;BME280;10233;50.814;6.590;2023-02-16T05:47:39;101022.53;;;3.25;100.00
20145;BME280;10233;50.814;6.590;2023-02-16T05:48:40;101023.50;;;3.24;100.00
20145;BME280;10233;50.814;6.590;2023-02-16T05:49:40;101022.28;;;3.28;100.00
20145;BME280;10233;50.814;6.590;2023-02-16T05:50:40;101016.31;;;3.26;100.00
20145;BME280;10233;50.814;6.590;2023-02-16T05:51:41;101024.06;;;3.28;100.00
20145;BME280;10233;50.814;6.590;2023-02-16T05:52:42;101015.63;;;3.24;100.00
20145;BME280;10233;50.814;6.590;2023-02-16T05:53:43;101026.44;;;3.31;100.00
20145;BME280;10233;50.814;6.590;2023-02-16T05:54:44;101018.44;;;3.32;100.00
20145;BME280;10233;50.814;6.590;2023-02-16T05:55:44;101013.44;;;3.29;100.00
20145;BME280;10233;50.814;6.590;2023-02-16T05:56:49;101019.66;;;3.28;100.00
20145;BME280;10233;50.814;6.590;2023-02-16T05:57:50;101017.56;;;3.32;100.00
20145;BME280;10233;50.814;6.590;2023-02-16T05:58:51;101011.09;;;3.36;100.00
20145;BME280;10233;50.814;6.590;2023-02-16T05:59:52;101020.06;;;3.33;100.00
20145;BME280;10233;50.814;6.590;2023-02-16T06:00:53;101016.91;;;3.39;100.00
20145;BME280;10233;50.814;6.590;2023-02-16T06:01:53;101014.94;;;3.41;100.00